Time;durP1;ratioP1;P1;durP2;ratioP2;P2;SDS_P1;SDS_P2;PMS_P1;PMS_P2;Temp;Humidity;BMP_temperature;BMP_pressure;BME280_temperature;BME280_humidity;BME280_pressure;Samples;Min_cycle;Max_cycle;Signal;HPM_P1;HPM_P2
2021/05/26 00:01:59;;;;;;;6.47;2.85;;;8.60;99.90;;;7.22;100.00;100691.53;5032343;28;20072;-76
2021/05/26 00:04:25;;;;;;;5.38;3.10;;;8.70;99.90;;;7.24;100.00;100691.47;5014893;28;20085;-76
2021/05/26 00:06:51;;;;;;;7.60;3.00;;;8.70;99.90;;;7.28;100.00;100691.31;4986985;28;20067;-76
2021/05/26 00:09:17;;;;;;;7.30;2.78;;;8.70;99.90;;;7.28;100.00;100700.91;5020628;28;20075;-76
2021/05/26 00:11:43;;;;;;;4.60;3.22;;;8.70;99.90;;;7.29;100.00;100694.78;5030312;28;20424;-77
2021/05/26 00:14:09;;;;;;;3.75;2.63;;;8.70;99.90;;;7.29;100.00;100692.16;5000960;28;20070;-76
2021/05/26 00:16:37;;;;;;;4.50;2.90;;;8.70;99.90;;;7.35;100.00;100686.72;5022394;28;21556;-76
2021/05/26 00:19:06;;;;;;;3.90;2.58;;;8.80;99.90;;;7.34;100.00;100687.63;5064633;28;20070;-76
2021/05/26 00:21:32;;;;;;;4.32;2.63;;;8.70;99.90;;;7.29;100.00;100689.53;4998093;28;20154;-76
2021/05/26 00:23:58;;;;;;;4.55;2.70;;;8.70;99.90;;;7.23;100.00;100681.88;4995482;28;21895;-76
2021/05/26 00:26:23;;;;;;;3.92;2.60;;;8.60;99.90;;;7.14;100.00;100683.91;5012065;28;20084;-77
2021/05/26 00:28:54;;;;;;;5.07;2.35;;;8.50;99.90;;;7.10;100.00;100681.44;5030942;28;20123;-77
2021/05/26 00:31:22;;;;;;;3.13;2.33;;;8.40;99.90;;;7.05;100.00;100694.69;5013191;28;20072;-76
2021/05/26 00:33:49;;;;;;;3.88;2.55;;;;;;;7.07;100.00;100689.41;4990990;28;20068;-77
2021/05/26 00:36:15;;;;;;;5.90;1.98;;;8.50;99.90;;;7.05;100.00;100684.22;5042945;28;20125;-76
2021/05/26 00:38:41;;;;;;;9.48;2.20;;;8.50;99.90;;;7.04;100.00;100682.50;5015384;28;20067;-77
2021/05/26 00:41:06;;;;;;;5.82;2.20;;;8.40;99.90;;;7.03;100.00;100685.16;5030174;28;20122;-77
2021/05/26 00:43:32;;;;;;;7.88;2.60;;;8.50;99.90;;;7.03;100.00;100686.03;5032422;28;20575;-76
2021/05/26 00:46:01;;;;;;;3.70;2.50;;;8.50;99.90;;;7.05;100.00;100684.22;5036902;28;20474;-76
2021/05/26 00:48:27;;;;;;;6.70;2.88;;;8.50;99.90;;;7.04;100.00;100682.50;5015156;28;20071;-76
2021/05/26 00:50:55;;;;;;;4.28;2.60;;;8.50;99.90;;;7.08;100.00;100683.25;5014960;28;20426;-76
2021/05/26 00:53:23;;;;;;;4.45;2.50;;;8.50;99.90;;;7.09;100.00;100682.34;5013078;28;20067;-77
2021/05/26 00:55:50;;;;;;;4.82;2.25;;;8.50;99.90;;;7.09;100.00;100687.59;5026058;28;20099;-76
2021/05/26 00:58:16;;;;;;;5.38;2.65;;;8.50;99.90;;;7.12;100.00;100690.09;5032340;28;20070;-77
2021/05/26 01:00:42;;;;;;;4.85;2.50;;;8.50;99.90;;;7.11;100.00;100686.63;5012766;28;20082;-77
2021/05/26 01:03:09;;;;;;;3.83;2.30;;;8.50;99.90;;;7.10;100.00;100681.44;4988177;28;20161;-76
2021/05/26 01:05:35;;;;;;;3.08;2.33;;;8.50;99.90;;;7.09;100.00;100683.22;5053680;28;20146;-76
2021/05/26 01:08:01;;;;;;;4.95;2.60;;;8.50;99.90;;;7.09;100.00;100685.81;4991749;28;20069;-76
2021/05/26 01:10:31;;;;;;;4.78;2.20;;;8.50;99.90;;;7.05;100.00;100673.75;5036458;28;20161;-76
2021/05/26 01:12:57;;;;;;;3.35;1.88;;;8.40;99.90;;;7.03;100.00;100675.56;5005394;28;20103;-77
2021/05/26 01:15:25;;;;;;;6.50;2.10;;;8.50;99.90;;;7.04;100.00;100677.28;5000736;28;20117;-77
2021/05/26 01:17:53;;;;;;;5.82;2.53;;;8.40;99.90;;;7.01;100.00;100677.34;5010684;28;20070;-78
2021/05/26 01:20:28;;;;;;;5.93;2.63;;;8.40;99.90;;;7.01;100.00;100677.34;5014780;28;20080;-77
2021/05/26 01:23:00;;;;;;;4.72;2.38;;;8.40;99.90;;;6.96;100.00;100672.28;5000584;28;20090;-78
2021/05/26 01:25:27;;;;;;;4.60;2.22;;;8.40;99.90;;;6.97;100.00;100673.97;4978255;28;20075;-77
2021/05/26 01:27:56;;;;;;;6.10;2.30;;;8.40;99.90;;;6.94;100.00;100681.09;5022196;28;20087;-77
2021/05/26 01:30:23;;;;;;;3.13;2.45;;;8.30;99.90;;;6.95;100.00;100674.94;5016698;28;20113;-77
2021/05/26 01:32:51;;;;;;;5.93;2.90;;;8.30;99.90;;;6.94;100.00;100678.47;4990024;28;20079;-78
2021/05/26 01:35:19;;;;;;;3.58;2.63;;;8.40;99.90;;;6.93;100.00;100681.97;5000616;28;20548;-77
2021/05/26 01:37:50;;;;;;;5.10;2.75;;;8.40;99.90;;;6.93;100.00;100681.97;5019740;28;20090;-78
2021/05/26 01:40:19;;;;;;;6.18;3.05;;;8.30;99.90;;;6.93;100.00;100677.63;5015051;28;20176;-78
2021/05/26 01:42:45;;;;;;;5.95;2.80;;;8.30;99.90;;;6.92;100.00;100683.75;5040389;28;20071;-78
2021/05/26 01:45:14;;;;;;;4.65;2.80;;;8.40;99.90;;;6.94;100.00;100674.09;5023529;28;20067;-78
2021/05/26 01:47:41;;;;;;;5.68;2.70;;;8.30;99.90;;;6.93;100.00;100672.38;4990903;28;20112;-78
2021/05/26 01:50:19;;;;;;;7.38;2.67;;;8.30;99.90;;;6.89;100.00;100680.38;5011632;28;20070;-78
2021/05/26 01:52:48;;;;;;;4.40;2.83;;;8.30;99.90;;;6.84;100.00;100671.81;4966802;28;20070;-79
2021/05/26 01:55:15;;;;;;;4.55;2.45;;;8.20;99.90;;;6.80;100.00;100671.03;5012297;28;20085;-78
2021/05/26 01:57:44;;;;;;;4.75;2.90;;;8.20;99.90;;;6.74;100.00;100669.50;4997863;28;20459;-78
2021/05/26 02:00:14;;;;;;;5.70;2.80;;;8.10;99.90;;;6.66;100.00;100666.25;4977767;28;20074;-78
2021/05/26 02:02:41;;;;;;;5.15;2.28;;;8.10;99.90;;;6.68;100.00;100661.84;5041054;28;20584;-78
2021/05/26 02:05:09;;;;;;;6.30;2.58;;;8.00;99.90;;;6.61;100.00;100662.06;5021616;28;20072;-77
2021/05/26 02:07:37;;;;;;;5.45;2.60;;;8.00;99.90;;;6.57;100.00;100663.94;4984303;28;20089;-78
2021/05/26 02:10:10;;;;;;;4.65;1.85;;;8.00;99.90;;;6.57;100.00;100666.56;5044586;28;20077;-79
2021/05/26 02:12:38;;;;;;;4.13;2.20;;;8.00;99.90;;;6.58;100.00;100668.25;4992228;28;20074;-77
2021/05/26 02:15:11;;;;;;;4.70;2.20;;;8.00;99.90;;;6.54;100.00;100664.00;5007046;28;20150;-77
2021/05/26 02:17:38;;;;;;;8.35;2.20;;;8.00;99.90;;;6.50;100.00;100668.50;5028557;28;20063;-77
2021/05/26 02:20:07;;;;;;;4.68;2.13;;;7.90;99.90;;;6.40;100.00;100659.22;4992919;28;20118;-77
2021/05/26 02:22:36;;;;;;;4.78;2.20;;;7.80;99.90;;;6.35;100.00;100668.97;5017248;28;20168;-77
2021/05/26 02:25:03;;;;;;;8.48;2.63;;;7.70;99.90;;;6.19;100.00;100673.78;5058245;28;20086;-77
2021/05/26 02:27:30;;;;;;;8.32;2.55;;;7.60;99.90;;;6.13;100.00;100667.00;4996695;28;20548;-78
2021/05/26 02:29:55;;;;;;;2.88;1.70;;;7.50;99.90;;;6.06;100.00;100667.19;5021263;28;20070;-77
2021/05/26 02:32:23;;;;;;;9.70;1.65;;;7.50;99.90;;;6.02;100.00;100670.81;5009575;28;20082;-77
2021/05/26 02:34:51;;;;;;;3.00;1.70;;;7.50;99.90;;;6.05;100.00;100663.75;5024782;28;20065;-77
2021/05/26 02:37:19;;;;;;;3.40;1.67;;;7.50;99.90;;;6.08;100.00;100668.00;5044306;28;20113;-78
2021/05/26 02:39:45;;;;;;;3.45;1.70;;;7.50;99.90;;;6.07;100.00;100668.91;5025451;28;20155;-78
2021/05/26 02:42:11;;;;;;;8.35;1.90;;;7.50;99.90;;;6.12;100.00;100664.41;4983076;28;20064;-78
2021/05/26 02:44:37;;;;;;;5.95;1.90;;;7.50;99.90;;;6.11;100.00;100667.91;4993463;28;20280;-77
2021/05/26 02:47:03;;;;;;;2.50;1.83;;;7.50;99.90;;;6.05;100.00;100665.50;5022290;28;20172;-77
2021/05/26 02:49:28;;;;;;;5.00;1.70;;;7.50;99.90;;;6.00;100.00;100663.00;4995313;28;20067;-77
2021/05/26 02:51:57;;;;;;;4.88;2.08;;;7.50;99.90;;;6.02;100.00;100666.41;5011680;28;20545;-78
2021/05/26 02:54:22;;;;;;;5.95;2.22;;;7.50;99.90;;;6.01;100.00;100664.72;5010284;28;20097;-77
2021/05/26 02:56:51;;;;;;;7.55;2.40;;;7.50;99.90;;;6.06;100.00;100664.59;5013175;28;20079;-78
2021/05/26 02:59:16;;;;;;;2.83;2.13;;;7.60;99.90;;;6.15;100.00;100661.69;5030855;28;20224;-77
2021/05/26 03:01:42;;;;;;;7.22;2.75;;;7.60;99.90;;;6.19;100.00;100660.72;5025552;28;20533;-77
2021/05/26 03:04:10;;;;;;;10.10;2.50;;;7.60;99.90;;;6.21;100.00;100664.13;4981884;28;20091;-78
2021/05/26 03:06:38;;;;;;;6.10;2.53;;;7.60;99.90;;;6.19;100.00;100662.47;5015828;28;20061;-79
2021/05/26 03:09:05;;;;;;;5.40;2.58;;;7.50;99.90;;;6.08;100.00;100662.78;5010150;28;20521;-78
2021/05/26 03:11:31;;;;;;;4.75;2.70;;;7.50;99.90;;;6.16;100.00;100664.28;5012612;28;20070;-78
2021/05/26 03:13:56;;;;;;;7.45;3.30;;;7.60;99.90;;;6.15;100.00;100673.03;5053966;28;20084;-77
2021/05/26 03:16:22;;;;;;;7.03;3.75;;;7.70;99.90;;;6.26;100.00;100671.84;5041897;28;20543;-78
2021/05/26 03:18:49;;;;;;;11.45;4.38;;;7.70;99.90;;;6.28;100.00;100673.50;5007844;28;20486;-77
2021/05/26 03:21:15;;;;;;;8.75;4.65;;;7.80;99.90;;;6.31;100.00;100662.13;5007817;28;20129;-78
2021/05/26 03:23:43;;;;;;;6.53;4.28;;;7.80;99.90;;;6.40;100.00;100663.59;4983530;28;20161;-77
2021/05/26 03:26:09;;;;;;;9.38;5.28;;;7.90;99.90;;;6.54;100.00;100667.50;4999837;28;20066;-77
2021/05/26 03:28:35;;;;;;;8.65;5.50;;;8.00;99.90;;;6.52;100.00;100663.19;5003545;28;20535;-78
2021/05/26 03:31:01;;;;;;;12.98;6.28;;;8.00;99.90;;;6.62;100.00;100661.19;5025430;28;20132;-77
2021/05/26 03:33:27;;;;;;;12.60;6.63;;;8.00;99.90;;;6.68;100.00;100655.75;4986568;28;20528;-77
2021/05/26 03:35:55;;;;;;;9.18;5.68;;;8.10;99.90;;;6.70;100.00;100661.78;5036890;28;20533;-77
2021/05/26 03:38:21;;;;;;;8.98;5.72;;;8.10;99.90;;;6.77;100.00;100658.06;4999511;28;20069;-78
2021/05/26 03:40:47;;;;;;;8.32;5.72;;;8.20;99.90;;;6.80;100.00;100657.09;5021725;28;20066;-78
2021/05/26 03:43:13;;;;;;;9.70;6.00;;;8.20;99.90;;;6.78;100.00;100655.41;4996056;28;20429;-77
2021/05/26 03:45:39;;;;;;;11.25;6.50;;;8.30;99.90;;;6.86;100.00;100659.53;5012045;28;20061;-77
2021/05/26 03:48:06;;;;;;;10.88;6.00;;;8.30;99.90;;;6.90;100.00;100650.69;5008645;28;20230;-77
2021/05/26 03:50:32;;;;;;;10.68;6.68;;;8.30;99.90;;;6.94;100.00;100652.28;5009103;28;20067;-78
2021/05/26 03:53:00;;;;;;;10.32;6.15;;;8.40;99.90;;;6.97;100.00;100652.19;4997222;28;20166;-77
2021/05/26 03:55:26;;;;;;;14.60;6.95;;;8.40;99.90;;;7.00;100.00;100649.47;5019393;28;20146;-77
2021/05/26 03:57:52;;;;;;;10.48;6.35;;;8.40;99.90;;;7.07;100.00;100653.59;5041442;28;20067;-77
2021/05/26 04:00:22;;;;;;;11.65;7.00;;;8.50;99.90;;;7.10;100.00;100653.47;4987509;28;20090;-77
2021/05/26 04:02:52;;;;;;;14.68;7.03;;;8.50;99.90;;;7.12;100.00;100653.44;5000531;28;20063;-77
2021/05/26 04:05:20;;;;;;;9.63;6.45;;;8.50;99.90;;;7.17;100.00;100648.88;5001135;28;20060;-77
2021/05/26 04:07:46;;;;;;;12.98;7.00;;;8.60;99.90;;;7.19;100.00;100660.16;4971441;28;20074;-77
2021/05/26 04:10:12;;;;;;;10.23;6.45;;;8.70;99.90;;;7.26;100.00;100650.38;4995806;28;20082;-77
2021/05/26 04:12:38;;;;;;;12.13;6.90;;;8.70;99.90;;;7.31;100.00;100657.16;5066929;28;20072;-77
2021/05/26 04:15:07;;;;;;;10.00;6.88;;;8.70;99.90;;;7.38;100.00;100660.41;5000309;28;20065;-77
2021/05/26 04:17:35;;;;;;;12.65;7.03;;;8.80;99.90;;;7.50;100.00;100653.91;5007573;28;20057;-79
2021/05/26 04:20:04;;;;;;;14.60;7.57;;;8.80;99.90;;;7.51;100.00;100660.84;5023883;28;20542;-78
2021/05/26 04:22:33;;;;;;;11.85;7.68;;;8.90;99.90;;;7.58;100.00;100655.34;5019121;28;20438;-77
2021/05/26 04:24:59;;;;;;;10.40;7.70;;;9.00;99.90;;;7.66;100.00;100655.06;4999543;28;20190;-77
2021/05/26 04:27:27;;;;;;;14.60;7.93;;;9.10;99.90;;;7.81;100.00;100661.53;4980131;28;20288;-78
2021/05/26 04:29:54;;;;;;;13.40;8.15;;;9.20;99.90;;;7.90;100.00;100649.84;4993608;28;20081;-77
2021/05/26 04:32:19;;;;;;;15.65;9.02;;;9.20;99.90;;;7.90;100.00;100653.31;5008231;28;20077;-78
2021/05/26 04:34:45;;;;;;;14.07;8.82;;;9.20;99.90;;;7.93;100.00;100649.75;5027360;28;20494;-77
2021/05/26 04:37:11;;;;;;;14.15;8.18;;;9.30;99.90;;;7.90;100.00;100653.31;5027605;28;20093;-77
2021/05/26 04:39:39;;;;;;;10.75;7.85;;;9.20;99.90;;;7.88;100.00;100652.50;5009415;28;20066;-77
2021/05/26 04:42:05;;;;;;;14.70;8.45;;;9.20;99.90;;;7.86;100.00;100651.75;5005946;28;20097;-77
2021/05/26 04:44:31;;;;;;;13.43;8.32;;;9.20;99.90;;;7.81;100.00;100648.41;5030856;28;20087;-78
2021/05/26 04:46:57;;;;;;;11.25;8.15;;;9.10;99.90;;;7.81;100.00;100648.41;5029342;28;21435;-77
2021/05/26 04:49:23;;;;;;;13.32;8.32;;;9.20;99.90;;;7.79;100.00;100645.00;5005268;28;20075;-77
2021/05/26 04:51:49;;;;;;;12.23;8.35;;;9.20;99.90;;;7.86;100.00;100646.50;5014210;28;20074;-77
2021/05/26 04:54:15;;;;;;;12.82;7.95;;;9.20;99.90;;;7.87;100.00;100640.31;5012514;28;20065;-77
2021/05/26 04:56:42;;;;;;;16.25;8.48;;;9.20;99.90;;;7.84;100.00;100637.84;5013081;28;20071;-77
2021/05/26 04:59:08;;;;;;;12.93;8.25;;;9.20;99.90;;;7.91;100.00;100641.94;4996712;28;20081;-77
2021/05/26 05:01:36;;;;;;;14.00;8.05;;;9.30;99.90;;;7.93;100.00;100641.88;5034050;28;20146;-77
2021/05/26 05:04:03;;;;;;;12.90;7.70;;;9.30;99.90;;;8.05;100.00;100641.41;5023039;28;20531;-78
2021/05/26 05:06:28;;;;;;;16.40;8.48;;;9.40;99.90;;;8.12;100.00;100636.78;4999150;28;20139;-78
2021/05/26 05:08:54;;;;;;;11.43;7.35;;;9.50;99.90;;;8.16;100.00;100644.50;5012310;28;20086;-78
2021/05/26 05:11:20;;;;;;;9.95;7.38;;;9.50;99.90;;;8.15;100.00;100634.06;4992790;28;20181;-78
2021/05/26 05:13:47;;;;;;;17.70;7.22;;;9.50;99.90;;;8.13;100.00;100633.25;4982191;28;20068;-77
2021/05/26 05:16:13;;;;;;;11.90;7.20;;;9.50;99.90;;;8.18;100.00;100631.31;5028912;28;20063;-77
2021/05/26 05:18:39;;;;;;;9.05;6.63;;;9.60;99.90;;;8.37;99.78;100634.94;4983807;28;20070;-79
2021/05/26 05:21:07;;;;;;;9.48;6.50;;;9.70;99.90;;;8.55;99.52;100635.16;4981081;28;20071;-78
2021/05/26 05:23:34;;;;;;;10.65;7.07;;;9.80;99.90;;;8.58;98.65;100627.19;5023303;28;20664;-78
2021/05/26 05:26:02;;;;;;;15.18;6.65;;;9.90;99.90;;;8.69;98.27;100635.47;5053570;28;20436;-77
2021/05/26 05:28:28;;;;;;;10.52;5.97;;;10.00;99.90;;;8.69;97.61;100630.22;5018315;28;20426;-78
2021/05/26 05:30:56;;;;;;;12.50;5.60;;;10.00;99.90;;;8.61;97.23;100627.88;4967264;28;20073;-78
2021/05/26 05:33:25;;;;;;;7.70;5.22;;;9.90;99.90;;;8.63;98.61;100628.69;4990911;28;20497;-78
2021/05/26 05:35:52;;;;;;;8.20;5.53;;;10.00;99.90;;;8.77;97.96;100627.31;4987109;28;20120;-77
2021/05/26 05:38:17;;;;;;;9.18;5.97;;;10.20;99.90;;;9.09;97.75;100620.69;5022872;28;20142;-78
2021/05/26 05:40:44;;;;;;;7.25;5.30;;;10.40;99.90;;;9.20;96.02;100628.13;4986701;28;20074;-78
2021/05/26 05:43:13;;;;;;;8.43;4.93;;;10.30;99.90;;;8.96;96.02;100632.63;5021947;28;20169;-77
2021/05/26 05:45:40;;;;;;;9.93;4.57;;;10.20;99.90;;;8.88;97.55;100630.34;4998724;28;20100;-79
2021/05/26 05:48:06;;;;;;;12.10;5.22;;;10.20;99.90;;;8.87;97.14;100627.75;5018386;28;20418;-78
2021/05/26 05:50:32;;;;;;;12.50;4.90;;;10.10;99.90;;;8.81;97.42;100628.84;5011341;28;20696;-78
2021/05/26 05:52:58;;;;;;;5.95;4.57;;;10.10;99.90;;;8.88;97.48;100630.34;5018922;28;20127;-77
2021/05/26 05:55:25;;;;;;;7.88;5.10;;;10.20;99.90;;;9.01;96.95;100625.44;5014517;28;20063;-78
2021/05/26 05:57:54;;;;;;;6.88;5.05;;;10.30;99.90;;;9.12;95.86;100625.81;5030152;28;20462;-78
2021/05/26 06:00:21;;;;;;;8.45;4.95;;;10.40;99.90;;;9.21;95.96;100624.59;5021884;28;20096;-77
2021/05/26 06:02:47;;;;;;;7.28;4.75;;;10.40;99.90;;;9.19;96.11;100615.91;4986381;28;20201;-77
2021/05/26 06:05:14;;;;;;;5.45;4.20;;;10.40;99.90;;;9.20;95.00;100615.84;5002692;28;20060;-77
2021/05/26 06:07:40;;;;;;;10.13;4.90;;;10.50;99.90;;;9.20;95.99;100620.22;5005773;28;20063;-78
2021/05/26 06:10:08;;;;;;;11.30;4.57;;;10.40;99.90;;;9.20;96.45;100622.84;5006539;28;20062;-79
2021/05/26 06:12:34;;;;;;;10.68;4.97;;;10.40;99.90;;;9.19;95.10;100627.25;4990113;28;20089;-78
2021/05/26 06:15:00;;;;;;;10.93;5.55;;;10.50;99.90;;;9.39;94.73;100617.69;5019232;28;20074;-78
2021/05/26 06:17:25;;;;;;;8.93;5.10;;;10.90;99.90;;;10.00;93.44;100611.44;4985530;28;20091;-78
2021/05/26 06:19:51;;;;;;;9.95;4.70;;;11.40;99.90;;;10.58;92.39;100610.50;5012081;28;20069;-78
2021/05/26 06:22:17;;;;;;;10.52;4.63;;;11.40;99.90;;;10.27;90.58;100618.06;5046014;28;20078;-77
2021/05/26 06:24:43;;;;;;;6.60;4.22;;;11.10;99.90;;;9.86;92.35;100615.56;5011641;28;20090;-77
2021/05/26 06:27:09;;;;;;;7.20;4.10;;;10.90;99.90;;;9.58;92.65;100612.47;5009038;28;20074;-77
2021/05/26 06:29:40;;;;;;;5.70;4.38;;;10.60;99.90;;;9.37;95.68;100616.88;5041661;28;20070;-78
2021/05/26 06:32:06;;;;;;;7.50;4.43;;;10.50;99.90;;;9.16;95.70;100611.66;5000180;28;20070;-77
2021/05/26 06:34:32;;;;;;;6.97;4.72;;;10.40;99.90;;;9.13;96.63;100618.78;5016730;28;20061;-77
2021/05/26 06:36:58;;;;;;;7.78;5.43;;;10.50;99.90;;;9.35;96.75;100614.34;4992424;28;20111;-77
2021/05/26 06:39:24;;;;;;;9.35;5.95;;;10.80;99.90;;;9.75;94.68;100609.09;5022235;28;20066;-77
2021/05/26 06:41:49;;;;;;;9.02;5.50;;;10.90;99.90;;;9.80;93.17;100607.09;5011141;28;20077;-77
2021/05/26 06:44:20;;;;;;;7.88;4.70;;;11.10;99.90;;;10.00;93.94;100601.81;5065536;28;20091;-78
2021/05/26 06:46:46;;;;;;;10.35;5.20;;;11.10;99.90;;;9.96;92.94;100602.88;5014359;28;20133;-78
2021/05/26 06:49:12;;;;;;;6.20;4.57;;;11.00;99.90;;;9.86;94.03;100609.47;4987671;28;20075;-78
2021/05/26 06:51:38;;;;;;;6.93;4.55;;;10.90;99.90;;;9.85;93.52;100610.41;4991448;28;20074;-77
2021/05/26 06:54:05;;;;;;;8.50;4.82;;;11.10;99.90;;;10.16;93.16;100604.56;5011328;28;20430;-78
2021/05/26 06:56:30;;;;;;;13.25;5.45;;;11.50;99.90;;;10.62;91.40;100606.81;5000228;28;20519;-77
2021/05/26 06:58:58;;;;;;;9.57;4.68;;;12.10;99.90;;;11.52;86.50;100604.03;4998845;28;20074;-77
2021/05/26 07:01:25;;;;;;;8.75;3.28;;;12.50;99.90;;;11.51;85.79;100597.03;5019002;28;20572;-78
2021/05/26 07:03:51;;;;;;;7.78;3.75;;;12.00;99.90;;;10.77;86.81;100606.06;5016719;28;20152;-77
2021/05/26 07:06:18;;;;;;;5.43;3.70;;;11.50;99.90;;;10.28;88.54;100611.03;5034909;28;20140;-78
2021/05/26 07:08:43;;;;;;;8.05;4.07;;;11.30;99.90;;;10.21;89.15;100612.25;5043872;28;20423;-77
2021/05/26 07:11:09;;;;;;;5.68;4.03;;;11.20;99.90;;;10.04;89.32;100613.00;5030530;28;24443;-77
2021/05/26 07:13:40;;;;;;;4.55;3.90;;;11.20;99.90;;;9.98;89.59;100611.53;5017432;28;20429;-77
2021/05/26 07:16:06;;;;;;;4.70;3.80;;;11.00;99.90;;;9.81;90.18;100609.66;5018113;28;20066;-77
2021/05/26 07:18:33;;;;;;;5.90;4.15;;;11.10;99.90;;;9.99;90.45;100610.59;4994886;28;20077;-77
2021/05/26 07:21:01;;;;;;;6.82;3.97;;;11.10;99.90;;;9.95;89.00;100609.03;4978555;28;20086;-77
2021/05/26 07:23:32;;;;;;;6.28;3.50;;;11.10;99.90;;;9.98;87.75;100616.81;4985599;28;20083;-77
2021/05/26 07:25:57;;;;;;;7.43;4.07;;;11.40;99.90;;;10.32;88.70;100612.59;5030751;28;20526;-77
2021/05/26 07:28:23;;;;;;;7.72;3.70;;;11.60;99.90;;;10.63;86.19;100609.38;4985983;28;20076;-77
2021/05/26 07:30:49;;;;;;;5.43;3.20;;;12.00;99.90;;;10.99;84.79;100597.09;5024647;28;20079;-78
2021/05/26 07:33:15;;;;;;;4.32;3.13;;;11.80;99.90;;;10.82;85.57;100608.47;4980804;28;20065;-76
2021/05/26 07:35:41;;;;;;;4.65;3.30;;;12.10;99.90;;;11.25;83.03;100607.16;5024376;28;20062;-77
2021/05/26 07:38:07;;;;;;;4.97;3.33;;;12.20;99.90;;;11.31;83.40;100599.88;4984704;28;20631;-78
2021/05/26 07:40:33;;;;;;;4.75;3.17;;;12.10;99.90;;;11.14;83.57;100606.84;4991047;28;20081;-78
2021/05/26 07:42:58;;;;;;;6.03;3.13;;;12.30;99.90;;;11.39;83.78;100611.72;5057401;28;20074;-78
2021/05/26 07:45:24;;;;;;;3.70;2.70;;;12.00;99.90;;;10.87;84.49;100611.72;5055567;28;20119;-77
2021/05/26 07:47:50;;;;;;;3.83;2.67;;;11.70;99.90;;;10.48;87.12;100607.50;5001138;28;20112;-78
2021/05/26 07:50:16;;;;;;;6.32;3.50;;;11.60;99.90;;;10.54;86.71;100609.84;5021942;28;20066;-77
2021/05/26 07:52:42;;;;;;;6.07;3.20;;;11.70;99.90;;;10.90;86.37;100611.56;5015133;28;20549;-77
2021/05/26 07:55:08;;;;;;;5.75;3.63;;;12.30;99.90;;;11.63;83.35;100603.47;5046716;28;20120;-77
2021/05/26 07:57:34;;;;;;;6.40;3.10;;;13.10;99.90;;;12.75;79.22;100601.75;5023545;28;20144;-77
2021/05/26 08:00:03;;;;;;;3.90;2.63;;;13.80;99.90;;;13.01;77.20;100597.59;4990960;28;20068;-77
2021/05/26 08:02:29;;;;;;;3.38;2.58;;;13.10;99.90;;;11.57;80.21;100609.91;4987960;28;20698;-77
2021/05/26 08:04:54;;;;;;;7.68;3.22;;;11.90;99.90;;;10.74;84.02;100621.16;5002172;28;20077;-77
2021/05/26 08:07:20;;;;;;;4.40;3.10;;;11.70;99.90;;;10.60;85.02;100613.94;4986284;28;20080;-77
2021/05/26 08:09:46;;;;;;;7.18;4.00;;;11.70;99.90;;;10.44;84.44;100609.41;5012935;28;20068;-77
2021/05/26 08:12:13;;;;;;;5.75;3.22;;;11.50;99.90;;;10.38;86.56;100617.59;5008077;28;20091;-77
2021/05/26 08:14:44;;;;;;;5.40;3.67;;;11.60;99.90;;;10.57;85.43;100606.19;5022874;28;20066;-77
2021/05/26 08:17:10;;;;;;;6.95;3.47;;;12.00;99.90;;;11.29;81.90;100597.31;5043893;28;20536;-78
2021/05/26 08:19:36;;;;;;;5.57;2.88;;;12.90;99.90;;;12.33;79.01;100596.16;5044382;28;20066;-78
2021/05/26 08:22:03;;;;;;;6.47;2.97;;;13.50;99.90;;;13.09;76.28;100595.34;5013533;28;20074;-77
2021/05/26 08:24:29;;;;;;;10.93;2.47;;;14.50;99.90;;;14.03;73.71;100587.84;4990626;28;20079;-77
2021/05/26 08:26:57;;;;;;;6.35;2.67;;;14.50;99.90;;;13.63;71.66;100590.34;5022158;28;20083;-77
2021/05/26 08:29:23;;;;;;;3.78;2.40;;;14.30;99.90;;;13.64;72.93;100593.81;5024366;28;20061;-78
2021/05/26 08:31:50;;;;;;;3.10;2.25;;;14.30;99.90;;;13.53;73.29;100600.63;5013693;28;20447;-78
2021/05/26 08:34:16;;;;;;;3.65;2.20;;;14.00;99.90;;;13.12;73.72;100590.72;5056761;28;20075;-77
2021/05/26 08:36:42;;;;;;;3.67;1.80;;;14.10;99.90;;;13.16;72.83;100591.38;5033554;28;20107;-77
2021/05/26 08:39:08;;;;;;;4.28;1.67;;;13.60;99.90;;;12.65;73.40;100588.19;4991206;28;20536;-77
2021/05/26 08:41:34;;;;;;;2.50;1.90;;;13.60;99.90;;;12.93;74.57;100579.53;4986101;28;20150;-77
2021/05/26 08:44:00;;;;;;;5.00;2.00;;;14.20;99.90;;;13.50;68.93;100584.09;4979810;28;20080;-77
2021/05/26 08:46:28;;;;;;;2.67;1.70;;;14.50;99.90;;;13.77;67.43;100586.00;4973017;28;20437;-77
2021/05/26 08:49:01;;;;;;;5.38;2.28;;;14.80;99.90;;;14.20;67.07;100572.69;4999959;28;20439;-77
2021/05/26 08:51:28;;;;;;;4.85;1.88;;;14.80;99.90;;;13.96;68.04;100581.25;5024407;28;20077;-77
2021/05/26 08:53:56;;;;;;;2.65;1.73;;;14.80;99.90;;;13.68;67.53;100579.47;4994481;28;20066;-77
2021/05/26 08:56:22;;;;;;;2.88;1.50;;;14.20;99.90;;;13.23;71.13;100574.19;4988399;28;20063;-77
2021/05/26 08:58:48;;;;;;;3.13;1.42;;;14.10;99.90;;;13.18;72.96;100578.09;5013483;28;20062;-77
2021/05/26 09:01:16;;;;;;;4.22;1.92;;;13.80;99.90;;;12.59;72.65;100594.69;4990094;28;20085;-77
2021/05/26 09:03:54;;;;;;;3.05;1.83;;;13.30;99.90;;;12.28;75.78;100587.66;4957836;28;20163;-77
2021/05/26 09:06:22;;;;;;;5.07;1.85;;;13.10;99.90;;;12.09;74.85;100591.31;4983350;28;20073;-77
2021/05/26 09:08:57;;;;;;;2.83;1.80;;;13.10;99.90;;;12.06;75.35;100588.00;5012011;28;21244;-77
2021/05/26 09:11:43;;;;;;;4.47;2.05;;;13.00;99.90;;;12.10;75.73;100590.38;4988933;28;20089;-77
2021/05/26 09:14:19;;;;;;;1.90;1.30;;;13.20;99.90;;;12.31;72.93;100584.84;4953769;28;20115;-78
2021/05/26 09:16:54;;;;;;;2.57;1.70;;;13.40;99.90;;;12.66;71.75;100587.28;4983253;28;20114;-77
2021/05/26 09:19:46;;;;;;;3.72;2.10;;;14.00;99.90;;;13.56;69.96;100575.78;5050613;28;20078;-77
2021/05/26 09:22:34;;;;;;;4.07;1.85;;;14.40;99.90;;;13.37;67.67;100573.41;4962744;28;20116;-77
2021/05/26 09:26:01;;;;;;;5.82;1.95;;;14.00;99.90;;;12.99;70.78;100571.22;4998471;28;20080;-77
2021/05/26 09:28:56;;;;;;;4.03;1.63;;;13.60;99.90;;;12.37;70.90;100576.56;4971612;28;20066;-77
2021/05/26 09:31:50;;;;;;;3.78;2.17;;;13.20;99.90;;;11.92;76.69;100575.53;4950971;28;20079;-77
2021/05/26 09:35:06;;;;;;;5.05;2.35;;;12.80;99.90;;;11.83;78.98;100581.28;4943372;28;20117;-77
2021/05/26 09:38:16;;;;;;;2.30;1.80;;;12.80;99.90;;;11.64;79.31;100577.00;4973619;28;20067;-77
2021/05/26 09:41:24;;;;;;;2.17;1.98;;;12.70;99.90;;;11.53;77.96;100578.50;4985254;28;20114;-77
2021/05/26 09:44:18;;;;;;;1.67;1.52;;;12.50;99.90;;;11.37;77.93;100584.59;4968471;28;20217;-77
2021/05/26 09:47:14;;;;;;;4.72;2.25;;;12.30;99.90;;;10.86;80.55;100594.22;4969262;28;20070;-79
2021/05/26 09:50:36;;;;;;;3.63;1.75;;;11.60;99.90;;;10.24;84.57;100597.16;4953822;28;21110;-78
2021/05/26 09:53:29;;;;;;;3.65;1.85;;;11.20;99.90;;;9.83;88.70;100599.94;5028705;28;20078;-79
2021/05/26 09:56:07;;;;;;;5.00;2.00;;;10.70;99.90;;;9.36;90.70;100596.81;4998270;28;20449;-79
2021/05/26 09:59:02;;;;;;;4.82;2.33;;;10.50;99.90;;;9.15;93.41;100588.91;4969477;28;20516;-80
2021/05/26 10:02:19;;;;;;;4.25;2.97;;;10.50;99.90;;;9.56;95.61;100593.28;4947792;28;20198;-81
2021/05/26 10:05:35;;;;;;;3.72;2.00;;;11.30;99.90;;;10.81;87.73;100585.69;4943135;28;20089;-80
2021/05/26 10:08:42;;;;;;;3.28;1.40;;;12.00;99.90;;;11.09;84.95;100577.25;4978128;28;20069;-81
2021/05/26 10:11:56;;;;;;;;;;;12.80;99.90;;;11.07;86.19;100573.84;4976755;28;20180;-80
2021/05/26 10:15:25;;;;;;;1.77;0.85;;;12.10;99.90;;;11.18;82.72;100576.78;4954121;28;20415;-80
2021/05/26 10:18:26;;;;;;;1.83;1.13;;;12.30;99.90;;;11.28;84.36;100579.78;4964832;28;20077;-79
2021/05/26 10:21:31;;;;;;;1.20;0.90;;;12.50;99.90;;;11.53;86.41;100570.59;4980235;28;20087;-80
2021/05/26 10:24:34;;;;;;;3.50;0.65;;;12.30;99.90;;;11.24;80.19;100575.63;4968796;28;20132;-79
2021/05/26 10:27:39;;;;;;;1.73;0.60;;;12.40;99.90;;;11.49;80.33;100567.28;4950287;28;20072;-78
2021/05/26 10:30:56;;;;;;;53.25;3.85;;;12.60;99.90;;;11.58;78.00;100574.69;4972855;28;20458;-79